Welcome to Northern Hawkes Bay. New Zealand.
PWS Header
      nz Flag



Hit Counter


W3C Valid W3C Valid logo


    Wairoa

Select any of the Stations below to visit their websites.










Historic Data from Weather Underground
Select the location of interest below. Wairoa is the default. Please have patience, this Data is slow to load in.
Northern Hawkes Bay Historical Data
Daily Summary for December 4, 2017 Units:  Metric    English   Both
« Previous Day
Next Day »
Daily Weekly Monthly Yearly Custom
  High: Low: Average:
Temperature: 29.1 °C 14.5 °C 21.4 °C
Dew Point: 18.4 °C 13.3 °C 16 °C
Humidity: 99% 40% 74%
Wind Speed: 12.2km/h 0.0km/h 2.9km/h
Wind Gust: 19.5km/h - -
Wind- - SSW
Pressure: 1018.8 hPa 1015.1 hPa -
Precipitation: 0.0 mm    
Historical Graphs
 
 
Tabular Data for December 4, 2017
Time Temperature Dew Point Pressure Wind Wind Speed Wind Gust Humidity Rainfall Rate (Hourly) solar
00:01 16.8 °C 15.7 °C 1018.2 hPa Calm     93% 0.0 mm 0 W/m2
00:06 16.8 °C 15.7 °C 1018.2 hPa Calm     93% 0.0 mm 0 W/m2
00:11 16.8 °C 15.7 °C 1018.2 hPa Calm     93% 0.0 mm 0 W/m2
00:16 16.8 °C 15.7 °C 1018.2 hPa Calm     93% 0.0 mm 0 W/m2
00:21 16.8 °C 15.7 °C 1018.2 hPa Calm     93% 0.0 mm 0 W/m2
00:26 16.8 °C 15.7 °C 1018.2 hPa Calm     93% 0.0 mm 0 W/m2
00:31 16.7 °C 15.6 °C 1018.2 hPa Calm     93% 0.0 mm 0 W/m2
00:36 16.7 °C 15.6 °C 1018.2 hPa Calm     93% 0.0 mm 0 W/m2
00:41 16.7 °C 15.6 °C 1018.2 hPa Calm     93% 0.0 mm 0 W/m2
00:46 16.7 °C 15.7 °C 1018.2 hPa Calm     94% 0.0 mm 0 W/m2
00:51 16.6 °C 15.7 °C 1018.2 hPa Calm     94% 0.0 mm 0 W/m2
00:56 16.5 °C 15.6 °C 1017.8 hPa Calm     94% 0.0 mm 0 W/m2
01:01 16.5 °C 15.6 °C 1018.2 hPa Calm     94% 0.0 mm 0 W/m2
01:06 16.3 °C 15.3 °C 1018.2 hPa Calm     94% 0.0 mm 0 W/m2
01:11 16.2 °C 15.4 °C 1018.2 hPa Calm     95% 0.0 mm 0 W/m2
01:16 16.1 °C 15.3 °C 1018.2 hPa Calm     95% 0.0 mm 0 W/m2
01:21 16.0 °C 15.2 °C 1018.2 hPa Calm     95% 0.0 mm 0 W/m2
01:26 15.9 °C 15.3 °C 1018.2 hPa Calm     96% 0.0 mm 0 W/m2
01:31 15.9 °C 15.3 °C 1017.8 hPa Calm     96% 0.0 mm 0 W/m2
01:36 15.9 °C 15.4 °C 1017.8 hPa Calm     97% 0.0 mm 0 W/m2
01:41 15.9 °C 15.4 °C 1017.8 hPa Calm     97% 0.0 mm 0 W/m2
01:46 15.9 °C 15.4 °C 1017.8 hPa Calm     97% 0.0 mm 0 W/m2
01:51 16.0 °C 15.4 °C 1017.8 hPa Calm     96% 0.0 mm 0 W/m2
01:56 16.0 °C 15.4 °C 1017.8 hPa Calm     96% 0.0 mm 0 W/m2
02:01 16.1 °C 15.4 °C 1017.5 hPa Calm     96% 0.0 mm 0 W/m2
02:06 16.1 °C 15.4 °C 1017.8 hPa Calm     96% 0.0 mm 0 W/m2
02:11 16.3 °C 15.5 °C 1017.8 hPa Calm     95% 0.0 mm 0 W/m2
02:17 16.3 °C 15.5 °C 1017.8 hPa Calm     95% 0.0 mm 0 W/m2
02:22 16.4 °C 15.6 °C 1017.8 hPa Calm     95% 0.0 mm 0 W/m2
02:27 16.4 °C 15.4 °C 1017.5 hPa Calm     94% 0.0 mm 0 W/m2
02:32 16.5 °C 15.6 °C 1017.5 hPa Calm     94% 0.0 mm 0 W/m2
02:37 16.5 °C 15.4 °C 1017.8 hPa Calm     93% 0.0 mm 0 W/m2
02:42 16.5 °C 15.4 °C 1017.5 hPa Calm     93% 0.0 mm 0 W/m2
02:47 16.5 °C 15.4 °C 1017.5 hPa Calm     93% 0.0 mm 0 W/m2
02:52 16.5 °C 15.4 °C 1017.5 hPa Calm     93% 0.0 mm 0 W/m2
02:57 16.5 °C 15.4 °C 1017.2 hPa Calm     93% 0.0 mm 0 W/m2
03:02 16.5 °C 15.4 °C 1017.5 hPa Calm     93% 0.0 mm 0 W/m2
03:07 16.5 °C 15.4 °C 1017.5 hPa Calm     93% 0.0 mm 0 W/m2
03:12 16.4 °C 15.3 °C 1017.2 hPa Calm     93% 0.0 mm 0 W/m2
03:17 16.3 °C 15.3 °C 1017.2 hPa Calm     94% 0.0 mm 0 W/m2
03:22 16.3 °C 15.3 °C 1017.2 hPa Calm     94% 0.0 mm 0 W/m2
03:27 16.2 °C 15.2 °C 1017.2 hPa Calm     94% 0.0 mm 0 W/m2
03:32 16.1 °C 15.2 °C 1017.2 hPa Calm     94% 0.0 mm 0 W/m2
03:37 16.0 °C 15.1 °C 1017.2 hPa Calm     94% 0.0 mm 0 W/m2
03:42 15.9 °C 15.3 °C 1017.2 hPa Calm   1.1 km/h 96% 0.0 mm 0 W/m2
03:47 15.7 °C 15.1 °C 1016.8 hPa Calm   1.1 km/h 96% 0.0 mm 0 W/m2
03:52 15.7 °C 15.1 °C 1017.2 hPa Calm     96% 0.0 mm 0 W/m2
03:57 15.7 °C 15.2 °C 1017.2 hPa Calm     97% 0.0 mm 0 W/m2
04:02 15.6 °C 15.1 °C 1017.2 hPa Calm     97% 0.0 mm 0 W/m2
04:07 15.4 °C 14.9 °C 1017.2 hPa Calm     97% 0.0 mm 0 W/m2
04:12 15.4 °C 14.9 °C 1017.2 hPa Calm     97% 0.0 mm 0 W/m2
04:17 15.4 °C 14.9 °C 1017.2 hPa Calm     97% 0.0 mm 0 W/m2
04:22 15.4 °C 15.1 °C 1016.8 hPa Calm   5.0 km/h 98% 0.0 mm 0 W/m2
04:27 15.4 °C 15.1 °C 1017.2 hPa NNW 1.1 km/h 5.0 km/h 98% 0.0 mm 0 W/m2
04:47 15.2 °C 15.1 °C 1017.2 hPa NNW 1.1 km/h 5.0 km/h 99% 0.0 mm 0 W/m2
04:52 15.2 °C 15.1 °C 1017.2 hPa NNW 1.1 km/h 3.5 km/h 99% 0.0 mm 0 W/m2
04:57 15.1 °C 14.9 °C 1017.2 hPa NW 1.1 km/h 5.0 km/h 99% 0.0 mm 0 W/m2
05:02 15.0 °C 14.8 °C 1017.2 hPa Calm   5.0 km/h 99% 0.0 mm 0 W/m2
05:07 14.9 °C 14.8 °C 1017.2 hPa NNW 2.6 km/h 5.0 km/h 99% 0.0 mm 0 W/m2
05:12 14.9 °C 14.8 °C 1017.2 hPa North 2.6 km/h 5.0 km/h 99% 0.0 mm 0 W/m2
05:17 14.9 °C 14.8 °C 1017.5 hPa NNW 2.6 km/h 5.0 km/h 99% 0.0 mm 0 W/m2
05:22 14.9 °C 14.8 °C 1017.5 hPa NNW 1.1 km/h 5.0 km/h 99% 0.0 mm 0 W/m2
05:27 14.8 °C 14.7 °C 1017.5 hPa NNW 2.6 km/h 5.0 km/h 99% 0.0 mm 0 W/m2
05:32 14.8 °C 14.7 °C 1017.5 hPa Calm   3.5 km/h 99% 0.0 mm 0 W/m2
05:37 14.8 °C 14.7 °C 1017.5 hPa NNW 1.1 km/h 3.5 km/h 99% 0.0 mm 0 W/m2
05:42 14.7 °C 14.6 °C 1017.5 hPa NNW 1.1 km/h 3.5 km/h 99% 0.0 mm 2 W/m2
05:47 14.6 °C 14.4 °C 1017.5 hPa NNW 2.6 km/h 3.5 km/h 99% 0.0 mm 5 W/m2
05:52 14.6 °C 14.4 °C 1017.5 hPa NW 2.6 km/h 3.5 km/h 99% 0.0 mm 9 W/m2
05:57 14.5 °C 14.3 °C 1017.5 hPa NW 1.1 km/h 3.5 km/h 99% 0.0 mm 16 W/m2
06:03 14.5 °C 14.3 °C 1017.5 hPa NNW 2.6 km/h 5.0 km/h 99% 0.0 mm 21 W/m2
06:08 14.5 °C 14.3 °C 1017.5 hPa NNW 1.1 km/h 5.0 km/h 99% 0.0 mm 27 W/m2
06:13 14.6 °C 14.4 °C 1017.5 hPa NW 2.6 km/h 6.1 km/h 99% 0.0 mm 33 W/m2
06:18 14.6 °C 14.4 °C 1017.5 hPa NW 3.5 km/h 7.2 km/h 99% 0.0 mm 41 W/m2
06:23 14.9 °C 14.8 °C 1017.5 hPa NW 1.1 km/h 7.2 km/h 99% 0.0 mm 60 W/m2
06:33 15.4 °C 15.3 °C 1017.8 hPa NNW 3.5 km/h 7.2 km/h 99% 0.0 mm 76 W/m2
06:38 15.7 °C 15.6 °C 1017.8 hPa NNW 3.5 km/h 7.2 km/h 99% 0.0 mm 82 W/m2
06:43 16.0 °C 15.6 °C 1017.8 hPa NNW 5.0 km/h 7.2 km/h 97% 0.0 mm 88 W/m2
06:49 16.3 °C 15.7 °C 1017.8 hPa NNW 5.0 km/h 9.7 km/h 96% 0.0 mm 93 W/m2
06:55 16.5 °C 15.6 °C 1017.5 hPa NNW 5.0 km/h 9.7 km/h 94% 0.0 mm 102 W/m2
07:00 16.7 °C 15.7 °C 1017.8 hPa NW 6.1 km/h 9.7 km/h 94% 0.0 mm 110 W/m2
07:05 17.1 °C 15.8 °C 1017.8 hPa NW 3.5 km/h 9.7 km/h 92% 0.0 mm 118 W/m2
07:10 17.3 °C 15.8 °C 1017.8 hPa NNW 6.1 km/h 9.7 km/h 91% 0.0 mm 127 W/m2
07:15 17.6 °C 16.1 °C 1017.8 hPa NNW 7.2 km/h 11.1 km/h 91% 0.0 mm 140 W/m2
07:20 17.8 °C 16.0 °C 1017.8 hPa NW 7.2 km/h 12.2 km/h 89% 0.0 mm 158 W/m2
07:25 17.7 °C 15.7 °C 1017.8 hPa NNW 5.0 km/h 13.4 km/h 88% 0.0 mm 168 W/m2
07:30 18.3 °C 16.4 °C 1018.2 hPa North 2.6 km/h 13.4 km/h 89% 0.0 mm 184 W/m2
07:35 18.7 °C 16.3 °C 1017.8 hPa NNW 7.2 km/h 12.2 km/h 86% 0.0 mm 198 W/m2
07:40 18.6 °C 16.1 °C 1018.2 hPa NNW 5.0 km/h 12.2 km/h 85% 0.0 mm 207 W/m2
07:45 18.8 °C 16.2 °C 1018.2 hPa NNW 2.6 km/h 12.2 km/h 85% 0.0 mm 218 W/m2
07:50 19.3 °C 16.3 °C 1018.2 hPa NNW 3.5 km/h 8.7 km/h 83% 0.0 mm 230 W/m2
07:55 19.7 °C 16.6 °C 1018.2 hPa NNW 5.0 km/h 8.7 km/h 82% 0.0 mm 243 W/m2
08:00 19.8 °C 16.3 °C 1018.2 hPa NNW 3.5 km/h 8.7 km/h 80% 0.0 mm 255 W/m2
08:05 20.1 °C 16.2 °C 1018.2 hPa NNW 3.5 km/h 8.7 km/h 78% 0.0 mm 267 W/m2
08:10 20.2 °C 16.3 °C 1018.2 hPa NNW 3.5 km/h 8.7 km/h 78% 0.0 mm 282 W/m2
08:15 20.7 °C 16.7 °C 1018.2 hPa Calm   7.2 km/h 78% 0.0 mm 296 W/m2
08:20 21.3 °C 16.7 °C 1018.5 hPa Calm   7.2 km/h 75% 0.0 mm 312 W/m2
08:25 21.5 °C 16.4 °C 1018.2 hPa NNW 2.6 km/h 7.2 km/h 73% 0.0 mm 328 W/m2
08:30 21.7 °C 16.7 °C 1018.2 hPa Calm   7.2 km/h 73% 0.0 mm 343 W/m2
08:35 22.6 °C 17.3 °C 1018.5 hPa NW 1.1 km/h 6.1 km/h 72% 0.0 mm 357 W/m2
08:40 22.9 °C 17.4 °C 1018.5 hPa NNW 3.5 km/h 6.1 km/h 71% 0.0 mm 373 W/m2
08:45 22.6 °C 17.1 °C 1018.8 hPa Calm   6.1 km/h 71% 0.0 mm 385 W/m2
08:50 23.4 °C 18.1 °C 1018.5 hPa Calm   6.1 km/h 72% 0.0 mm 401 W/m2
08:55 23.4 °C 17.4 °C 1018.5 hPa Calm   6.1 km/h 69% 0.0 mm 417 W/m2
09:00 23.4 °C 17.2 °C 1018.5 hPa West 1.1 km/h 6.1 km/h 68% 0.0 mm 431 W/m2
09:17 24.2 °C 17.4 °C 1018.5 hPa SSE 7.2 km/h 11.1 km/h 66% 0.0 mm 488 W/m2
09:22 24.8 °C 18.1 °C 1018.5 hPa Calm   11.1 km/h 66% 0.0 mm 507 W/m2
09:27 24.4 °C 17.2 °C 1018.5 hPa Calm   11.1 km/h 64% 0.0 mm 524 W/m2
09:32 24.4 °C 17.4 °C 1018.5 hPa SSE 2.6 km/h 7.2 km/h 65% 0.0 mm 539 W/m2
09:37 24.1 °C 17.4 °C 1018.8 hPa SSE 1.1 km/h 7.2 km/h 66% 0.0 mm 554 W/m2
09:42 24.3 °C 18.1 °C 1018.8 hPa South 1.1 km/h 7.2 km/h 68% 0.0 mm 576 W/m2
09:48 24.8 °C 18.1 °C 1018.8 hPa SSE 6.1 km/h 8.7 km/h 66% 0.0 mm 603 W/m2
09:54 24.1 °C 17.6 °C 1018.5 hPa South 5.0 km/h 8.7 km/h 67% 0.0 mm 623 W/m2
09:59 23.7 °C 17.7 °C 1018.5 hPa South 5.0 km/h 8.7 km/h 69% 0.0 mm 645 W/m2
10:05 23.1 °C 17.3 °C 1018.8 hPa South 6.1 km/h 9.7 km/h 70% 0.0 mm 660 W/m2
10:22 22.7 °C 17.2 °C 1018.5 hPa South 7.2 km/h 13.4 km/h 71% 0.0 mm 702 W/m2
10:27 22.3 °C 17.2 °C 1018.5 hPa South 8.7 km/h 13.4 km/h 73% 0.0 mm 713 W/m2
10:32 22.5 °C 17.4 °C 1018.5 hPa SSW 5.0 km/h 12.2 km/h 73% 0.0 mm 717 W/m2
10:37 22.8 °C 17.5 °C 1018.5 hPa SSW 8.7 km/h 12.2 km/h 72% 0.0 mm 731 W/m2
10:42 22.4 °C 17.3 °C 1018.5 hPa South 9.7 km/h 14.8 km/h 73% 0.0 mm 741 W/m2
10:47 22.2 °C 17.6 °C 1018.5 hPa South 5.0 km/h 14.8 km/h 75% 0.0 mm 746 W/m2
10:52 22.2 °C 17.4 °C 1018.5 hPa South 8.7 km/h 14.8 km/h 74% 0.0 mm 753 W/m2
10:57 22.2 °C 17.6 °C 1018.5 hPa South 5.0 km/h 14.8 km/h 75% 0.0 mm 760 W/m2
11:02 22.6 °C 17.9 °C 1018.5 hPa South 9.7 km/h 14.8 km/h 75% 0.0 mm 768 W/m2
11:07 22.4 °C 17.6 °C 1018.5 hPa South 8.7 km/h 14.8 km/h 74% 0.0 mm 774 W/m2
11:12 22.7 °C 18.1 °C 1018.5 hPa South 7.2 km/h 14.8 km/h 75% 0.0 mm 783 W/m2
11:17 22.5 °C 17.7 °C 1018.2 hPa South 5.0 km/h 14.8 km/h 74% 0.0 mm 784 W/m2
11:22 22.4 °C 17.6 °C 1018.5 hPa South 6.1 km/h 14.8 km/h 74% 0.0 mm 787 W/m2
11:27 22.5 °C 17.9 °C 1018.5 hPa South 6.1 km/h 14.8 km/h 75% 0.0 mm 796 W/m2
11:32 22.6 °C 17.6 °C 1018.5 hPa South 9.7 km/h 14.8 km/h 73% 0.0 mm 803 W/m2
11:37 22.8 °C 17.7 °C 1018.5 hPa SSE 5.0 km/h 13.4 km/h 73% 0.0 mm 807 W/m2
11:42 23.3 °C 18.4 °C 1018.5 hPa SSE 3.5 km/h 13.4 km/h 74% 0.0 mm 814 W/m2
11:47 23.6 °C 18.3 °C 1018.5 hPa SSE 5.0 km/h 11.1 km/h 72% 0.0 mm 820 W/m2
11:52 23.2 °C 17.7 °C 1018.5 hPa South 9.7 km/h 13.4 km/h 71% 0.0 mm 826 W/m2
11:57 23.2 °C 17.9 °C 1018.2 hPa South 3.5 km/h 14.8 km/h 72% 0.0 mm 827 W/m2
12:02 23.5 °C 17.7 °C 1018.2 hPa South 7.2 km/h 14.8 km/h 70% 0.0 mm 831 W/m2
12:07 23.1 °C 17.3 °C 1018.5 hPa South 6.1 km/h 14.8 km/h 70% 0.0 mm 830 W/m2
12:12 23.1 °C 17.6 °C 1018.2 hPa South 6.1 km/h 13.4 km/h 71% 0.0 mm 829 W/m2
12:17 23.0 °C 17.5 °C 1018.2 hPa South 6.1 km/h 14.8 km/h 71% 0.0 mm 829 W/m2
12:22 23.1 °C 17.8 °C 1018.2 hPa South 1.1 km/h 14.8 km/h 72% 0.0 mm 833 W/m2
12:27 23.5 °C 17.7 °C 1018.5 hPa SSE 5.0 km/h 13.4 km/h 70% 0.0 mm 836 W/m2
12:32 23.7 °C 18.4 °C 1018.2 hPa SSE 6.1 km/h 12.2 km/h 72% 0.0 mm 838 W/m2
12:37 23.8 °C 18.0 °C 1018.2 hPa South 7.2 km/h 13.4 km/h 70% 0.0 mm 836 W/m2
12:42 23.8 °C 18.0 °C 1018.2 hPa South 7.2 km/h 13.4 km/h 70% 0.0 mm 833 W/m2
12:47 24.0 °C 17.7 °C 1018.2 hPa SSE 11.1 km/h 13.4 km/h 68% 0.0 mm 831 W/m2
12:52 23.9 °C 18.1 °C 1017.8 hPa SE 2.6 km/h 13.4 km/h 70% 0.0 mm 829 W/m2
12:57 24.2 °C 18.2 °C 1017.8 hPa SE 3.5 km/h 13.4 km/h 69% 0.0 mm 832 W/m2
13:02 24.5 °C 18.2 °C 1017.8 hPa SSE 3.5 km/h 9.7 km/h 68% 0.0 mm 832 W/m2
13:07 24.8 °C 18.3 °C 1017.8 hPa SSE 5.0 km/h 12.2 km/h 67% 0.0 mm 827 W/m2
13:12 24.4 °C 17.9 °C 1017.8 hPa South 11.1 km/h 15.8 km/h 67% 0.0 mm 819 W/m2
13:17 24.1 °C 17.6 °C 1017.8 hPa South 3.5 km/h 15.8 km/h 67% 0.0 mm 810 W/m2
13:22 24.2 °C 17.9 °C 1017.8 hPa SSE 6.1 km/h 14.8 km/h 68% 0.0 mm 809 W/m2
13:27 24.4 °C 18.4 °C 1017.5 hPa SE 3.5 km/h 14.8 km/h 69% 0.0 mm 808 W/m2
13:32 24.2 °C 17.7 °C 1017.5 hPa SSE 8.7 km/h 15.8 km/h 67% 0.0 mm 802 W/m2
13:37 24.0 °C 17.5 °C 1017.8 hPa SSE 9.7 km/h 15.8 km/h 67% 0.0 mm 795 W/m2
13:42 23.9 °C 17.9 °C 1017.5 hPa SSE 3.5 km/h 17.2 km/h 69% 0.0 mm 788 W/m2
13:47 24.5 °C 17.8 °C 1017.5 hPa SSE 7.2 km/h 17.2 km/h 66% 0.0 mm 788 W/m2
13:52 24.2 °C 17.7 °C 1017.5 hPa SSE 2.6 km/h 13.4 km/h 67% 0.0 mm 782 W/m2
13:57 23.9 °C 17.9 °C 1017.5 hPa SSE 3.5 km/h 15.8 km/h 69% 0.0 mm 772 W/m2
14:02 24.3 °C 17.8 °C 1017.5 hPa SSE 5.0 km/h 15.8 km/h 67% 0.0 mm 768 W/m2
14:07 24.2 °C 17.7 °C 1017.5 hPa SSE 5.0 km/h 15.8 km/h 67% 0.0 mm 763 W/m2
14:12 24.5 °C 17.8 °C 1017.2 hPa SSE 5.0 km/h 15.8 km/h 66% 0.0 mm 757 W/m2
14:17 24.5 °C 17.3 °C 1017.2 hPa SE 5.0 km/h 15.8 km/h 64% 0.0 mm 749 W/m2
14:22 24.5 °C 17.5 °C 1017.2 hPa SE 6.1 km/h 15.8 km/h 65% 0.0 mm 745 W/m2
14:27 24.5 °C 17.5 °C 1017.2 hPa SE 6.1 km/h 15.8 km/h 65% 0.0 mm 736 W/m2
14:32 24.5 °C 17.3 °C 1017.2 hPa SE 11.1 km/h 14.8 km/h 64% 0.0 mm 727 W/m2
14:37 24.8 °C 17.6 °C 1017.5 hPa ESE 3.5 km/h 14.8 km/h 64% 0.0 mm 723 W/m2
14:42 25.2 °C 17.4 °C 1017.2 hPa ESE 5.0 km/h 18.3 km/h 62% 0.0 mm 719 W/m2
14:47 25.1 °C 16.6 °C 1017.2 hPa SE 7.2 km/h 19.5 km/h 59% 0.0 mm 712 W/m2
14:53 25.4 °C 17.1 °C 1017.2 hPa SE 8.7 km/h 19.5 km/h 60% 0.0 mm 703 W/m2
14:58 25.8 °C 16.7 °C 1017.2 hPa SE 6.1 km/h 13.4 km/h 57% 0.0 mm 694 W/m2
15:03 26.2 °C 16.2 °C 1016.8 hPa SE 3.5 km/h 13.4 km/h 54% 0.0 mm 686 W/m2
15:08 26.6 °C 15.9 °C 1016.8 hPa ESE 8.7 km/h 19.5 km/h 52% 0.0 mm 682 W/m2
15:13 26.4 °C 15.8 °C 1016.8 hPa ESE 5.0 km/h 19.5 km/h 52% 0.0 mm 672 W/m2
15:18 26.6 °C 16.3 °C 1016.8 hPa SE 5.0 km/h 17.2 km/h 53% 0.0 mm 663 W/m2
15:23 26.8 °C 16.2 °C 1016.8 hPa SSE 5.0 km/h 15.8 km/h 52% 0.0 mm 654 W/m2
15:28 26.9 °C 15.3 °C 1016.5 hPa SE 7.2 km/h 13.4 km/h 49% 0.0 mm 643 W/m2
15:33 27.2 °C 14.9 °C 1016.5 hPa ESE 6.1 km/h 15.8 km/h 47% 0.0 mm 636 W/m2
15:38 27.6 °C 15.3 °C 1016.1 hPa ESE 7.2 km/h 15.8 km/h 47% 0.0 mm 629 W/m2
15:43 27.9 °C 14.2 °C 1016.1 hPa SE 2.6 km/h 14.8 km/h 43% 0.0 mm 620 W/m2
15:48 27.9 °C 14.2 °C 1016.1 hPa SE 1.1 km/h 15.8 km/h 43% 0.0 mm 605 W/m2
15:54 28.3 °C 15.6 °C 1016.1 hPa SE 2.6 km/h 15.8 km/h 46% 0.0 mm 600 W/m2
15:59 28.6 °C 15.9 °C 1016.1 hPa SE 2.6 km/h 13.4 km/h 46% 0.0 mm 590 W/m2
16:04 28.5 °C 15.8 °C 1016.1 hPa SE 2.6 km/h 12.2 km/h 46% 0.0 mm 578 W/m2
16:09 28.4 °C 16.3 °C 1016.1 hPa SE 3.5 km/h 15.8 km/h 48% 0.0 mm 564 W/m2
16:14 28.5 °C 16.4 °C 1016.1 hPa SE 6.1 km/h 15.8 km/h 48% 0.0 mm 553 W/m2
16:20 28.5 °C 16.4 °C 1016.1 hPa SE 6.1 km/h 12.2 km/h 48% 0.0 mm 539 W/m2
16:25 28.1 °C 16.4 °C 1015.8 hPa SE 6.1 km/h 18.3 km/h 49% 0.0 mm 524 W/m2
16:26 28.1 °C 16.4 °C 1016.1 hPa ESE 1.1 km/h 18.3 km/h 49% 0.0 mm 520 W/m2
16:28 28.1 °C 16.7 °C 1016.1 hPa SE 6.1 km/h 18.3 km/h 50% 0.0 mm 516 W/m2
16:29 28.1 °C 16.7 °C 1015.8 hPa SE 5.0 km/h 18.3 km/h 50% 0.0 mm 514 W/m2
16:32 28.0 °C 16.6 °C 1016.1 hPa SE 8.7 km/h 18.3 km/h 50% 0.0 mm 509 W/m2
16:37 27.7 °C 17.0 °C 1015.8 hPa SSE 1.1 km/h 14.8 km/h 52% 0.0 mm 493 W/m2
16:38 27.8 °C 17.1 °C 1015.8 hPa SSE 3.5 km/h 14.8 km/h 52% 0.0 mm 492 W/m2
16:43 28.3 °C 16.6 °C 1015.8 hPa SE 3.5 km/h 14.8 km/h 49% 0.0 mm 481 W/m2
16:48 28.6 °C 16.6 °C 1015.8 hPa SE 2.6 km/h 17.2 km/h 48% 0.0 mm 470 W/m2
16:54 28.7 °C 16.3 °C 1015.5 hPa SE 3.5 km/h 17.2 km/h 47% 0.0 mm 453 W/m2
16:59 28.7 °C 15.9 °C 1015.5 hPa SE 3.5 km/h 14.8 km/h 46% 0.0 mm 442 W/m2
17:04 28.7 °C 15.6 °C 1015.5 hPa SE 2.6 km/h 14.8 km/h 45% 0.0 mm 427 W/m2
17:09 28.6 °C 15.6 °C 1015.5 hPa ESE 6.1 km/h 13.4 km/h 45% 0.0 mm 414 W/m2
17:14 28.6 °C 15.6 °C 1015.5 hPa ESE 5.0 km/h 13.4 km/h 45% 0.0 mm 401 W/m2
17:19 29.0 °C 15.2 °C 1015.5 hPa ESE 1.1 km/h 13.4 km/h 43% 0.0 mm 387 W/m2
17:24 28.9 °C 15.1 °C 1015.5 hPa ESE 7.2 km/h 13.4 km/h 43% 0.0 mm 373 W/m2
17:29 28.8 °C 15.7 °C 1015.5 hPa East 2.6 km/h 13.4 km/h 45% 0.0 mm 361 W/m2
17:34 28.8 °C 15.0 °C 1015.5 hPa ESE 1.1 km/h 15.8 km/h 43% 0.0 mm 349 W/m2
17:39 29.1 °C 15.6 °C 1015.1 hPa ESE 3.5 km/h 15.8 km/h 44% 0.0 mm 335 W/m2
17:44 29.0 °C 14.1 °C 1015.5 hPa ESE 5.0 km/h 14.8 km/h 40% 0.0 mm 324 W/m2
17:49 28.3 °C 14.2 °C 1015.1 hPa ESE 2.6 km/h 14.8 km/h 42% 0.0 mm 310 W/m2
17:54 28.2 °C 14.4 °C 1015.5 hPa ESE 5.0 km/h 14.8 km/h 43% 0.0 mm 297 W/m2
17:59 28.5 °C 14.4 °C 1015.5 hPa East 9.7 km/h 14.8 km/h 42% 0.0 mm 286 W/m2
18:04 28.3 °C 14.9 °C 1015.5 hPa East 5.0 km/h 14.8 km/h 44% 0.0 mm 273 W/m2
18:09 28.5 °C 14.7 °C 1015.5 hPa ESE 5.0 km/h 14.8 km/h 43% 0.0 mm 261 W/m2
18:14 28.5 °C 14.7 °C 1015.5 hPa SE 5.0 km/h 13.4 km/h 43% 0.0 mm 251 W/m2
18:19 28.5 °C 14.7 °C 1015.5 hPa SE 3.5 km/h 13.4 km/h 43% 0.0 mm 238 W/m2
18:24 28.1 °C 14.4 °C 1015.5 hPa ESE 5.0 km/h 12.2 km/h 43% 0.0 mm 226 W/m2
18:29 27.8 °C 13.7 °C 1015.1 hPa ESE 12.2 km/h 17.2 km/h 42% 0.0 mm 215 W/m2
18:34 27.4 °C 13.7 °C 1015.1 hPa ESE 1.1 km/h 17.2 km/h 43% 0.0 mm 202 W/m2
18:39 27.4 °C 13.7 °C 1015.5 hPa East 2.6 km/h 14.8 km/h 43% 0.0 mm 189 W/m2
18:44 27.8 °C 14.1 °C 1015.5 hPa ESE 1.1 km/h 9.7 km/h 43% 0.0 mm 180 W/m2
18:49 27.9 °C 14.2 °C 1015.5 hPa Calm   7.2 km/h 43% 0.0 mm 169 W/m2
18:54 27.6 °C 14.3 °C 1015.5 hPa SE 1.1 km/h 7.2 km/h 44% 0.0 mm 159 W/m2
18:59 27.6 °C 14.9 °C 1015.5 hPa Calm   8.7 km/h 46% 0.0 mm 149 W/m2
19:04 27.6 °C 14.3 °C 1015.1 hPa SE 3.5 km/h 8.7 km/h 44% 0.0 mm 137 W/m2
19:10 26.8 °C 13.6 °C 1015.5 hPa ESE 5.0 km/h 13.4 km/h 44% 0.0 mm 120 W/m2
19:15 26.8 °C 13.6 °C 1015.5 hPa ESE 3.5 km/h 13.4 km/h 44% 0.0 mm 114 W/m2
19:20 26.5 °C 13.3 °C 1015.5 hPa ESE 6.1 km/h 11.1 km/h 44% 0.0 mm 102 W/m2
19:25 26.5 °C 13.6 °C 1015.5 hPa East 7.2 km/h 11.1 km/h 45% 0.0 mm 91 W/m2
19:30 26.2 °C 13.3 °C 1015.5 hPa East 7.2 km/h 11.1 km/h 45% 0.0 mm 76 W/m2
19:35 25.8 °C 14.0 °C 1015.5 hPa East 7.2 km/h 11.1 km/h 48% 0.0 mm 67 W/m2
19:40 25.6 °C 13.8 °C 1015.8 hPa East 5.0 km/h 11.1 km/h 48% 0.0 mm 51 W/m2
19:45 25.0 °C 14.2 °C 1015.8 hPa East 5.0 km/h 11.1 km/h 51% 0.0 mm 29 W/m2
19:50 24.1 °C 14.8 °C 1015.5 hPa East 3.5 km/h 11.1 km/h 56% 0.0 mm 25 W/m2
19:55 23.7 °C 14.9 °C 1015.5 hPa Calm   9.7 km/h 58% 0.0 mm 22 W/m2
20:00 23.5 °C 15.1 °C 1015.5 hPa Calm   7.2 km/h 59% 0.0 mm 17 W/m2
20:05 23.1 °C 14.9 °C 1015.5 hPa Calm   2.6 km/h 60% 0.0 mm 10 W/m2
20:10 22.8 °C 15.4 °C 1015.8 hPa Calm     63% 0.0 mm 7 W/m2
20:15 22.3 °C 15.4 °C 1015.8 hPa Calm     65% 0.0 mm 4 W/m2
20:20 22.0 °C 15.1 °C 1015.8 hPa Calm     65% 0.0 mm 1 W/m2
20:21 22.0 °C 15.4 °C 1015.8 hPa Calm     66% 0.0 mm 0 W/m2
20:26 21.8 °C 15.7 °C 1015.8 hPa Calm     68% 0.0 mm 0 W/m2
20:31 21.7 °C 16.0 °C 1015.8 hPa Calm     70% 0.0 mm 0 W/m2
20:36 21.6 °C 15.9 °C 1015.8 hPa Calm   2.6 km/h 70% 0.0 mm 0 W/m2
20:41 21.6 °C 15.9 °C 1016.1 hPa NE 1.1 km/h 3.5 km/h 70% 0.0 mm 0 W/m2
20:46 21.8 °C 15.9 °C 1016.1 hPa Calm   3.5 km/h 69% 0.0 mm 0 W/m2
20:51 21.7 °C 16.2 °C 1016.1 hPa Calm   3.5 km/h 71% 0.0 mm 0 W/m2
20:56 21.7 °C 16.4 °C 1016.1 hPa Calm   3.5 km/h 72% 0.0 mm 0 W/m2
21:01 21.5 °C 16.3 °C 1016.1 hPa Calm   2.6 km/h 72% 0.0 mm 0 W/m2
21:06 21.3 °C 16.1 °C 1016.1 hPa Calm     72% 0.0 mm 0 W/m2
21:22 20.7 °C 16.3 °C 1016.5 hPa Calm   1.1 km/h 76% 0.0 mm 0 W/m2
21:27 20.5 °C 16.3 °C 1016.5 hPa Calm   2.6 km/h 77% 0.0 mm 0 W/m2
21:32 20.5 °C 16.3 °C 1016.5 hPa Calm   2.6 km/h 77% 0.0 mm 0 W/m2
21:37 20.3 °C 16.2 °C 1016.5 hPa Calm   1.1 km/h 77% 0.0 mm 0 W/m2
21:42 20.0 °C 15.8 °C 1016.5 hPa Calm   1.1 km/h 77% 0.0 mm 0 W/m2
21:47 19.8 °C 15.9 °C 1016.5 hPa Calm     78% 0.0 mm 0 W/m2
21:52 19.7 °C 15.9 °C 1016.5 hPa Calm     79% 0.0 mm 0 W/m2
21:57 19.6 °C 16.1 °C 1016.5 hPa Calm     80% 0.0 mm 0 W/m2
22:02 19.5 °C 16.2 °C 1016.5 hPa Calm     81% 0.0 mm 0 W/m2
22:07 19.5 °C 16.3 °C 1016.5 hPa Calm   1.1 km/h 82% 0.0 mm 0 W/m2
22:12 19.5 °C 16.6 °C 1016.5 hPa Calm   1.1 km/h 83% 0.0 mm 0 W/m2
22:17 19.5 °C 16.7 °C 1016.5 hPa Calm     84% 0.0 mm 0 W/m2
22:22 19.4 °C 16.7 °C 1016.5 hPa Calm     84% 0.0 mm 0 W/m2
22:27 19.3 °C 16.7 °C 1016.8 hPa Calm   1.1 km/h 85% 0.0 mm 0 W/m2
22:46 18.4 °C 16.0 °C 1016.8 hPa Calm     86% 0.0 mm 0 W/m2
22:51 18.3 °C 16.1 °C 1016.8 hPa Calm     87% 0.0 mm 0 W/m2
22:56 18.3 °C 16.1 °C 1016.8 hPa Calm     87% 0.0 mm 0 W/m2
23:01 18.2 °C 16.0 °C 1016.5 hPa Calm     87% 0.0 mm 0 W/m2
23:06 18.1 °C 16.1 °C 1016.5 hPa Calm     88% 0.0 mm 0 W/m2
23:11 18.0 °C 16.0 °C 1016.5 hPa Calm     88% 0.0 mm 0 W/m2
23:16 17.9 °C 15.7 °C 1016.8 hPa Calm     87% 0.0 mm 0 W/m2
23:21 17.9 °C 15.9 °C 1016.8 hPa Calm     88% 0.0 mm 0 W/m2
23:26 17.8 °C 15.8 °C 1016.8 hPa Calm     88% 0.0 mm 0 W/m2
23:31 17.7 °C 15.7 °C 1016.5 hPa Calm     88% 0.0 mm 0 W/m2
23:36 17.7 °C 15.9 °C 1016.5 hPa Calm     89% 0.0 mm 0 W/m2
23:41 17.7 °C 16.1 °C 1016.5 hPa Calm     90% 0.0 mm 0 W/m2
23:46 17.7 °C 16.2 °C 1016.5 hPa Calm     91% 0.0 mm 0 W/m2
Northern Hawkes Bay. New Zealand Historic Data
Compliments of Weather Underground - 2.25 mb